KSDM/SDM METAR and TAF weather

Enter ICAO airport designator
Station Type Date Time Source
KSDM METAR 2019/09/21 04:53 UTC NOAA

KSDM 210453Z AUTO 00000KT 10SM CLR 18/16 A2989 RMK AO2 SLP117 T01780161


Station Type Date Time Source
KSDM Decoded METAR 2019/09/21 04:53 UTC NOAA

San Diego, Brown Field Municipal Airport, CA, United States (KSDM) 32-34-31N 116-59-35W 159M
Sep 21, 2019 - 12:53 AM EDT / 2019.09.21 0453 UTC
Wind: Calm:0
Visibility: 10 mile(s):0
Sky conditions: clear
Temperature: 64.0 F (17.8 C)
Dew Point: 61.0 F (16.1 C)
Relative Humidity: 89%
Pressure (altimeter): 29.89 in. Hg (1012 hPa)
ob: KSDM 210453Z AUTO 00000KT 10SM CLR 18/16 A2989 RMK AO2 SLP117 T01780161
cycle: 5

Station Type Date Time Source
KSDM TAF UTC NOAA

Error!

Example: see airport list